Time;durP1;ratioP1;P1;durP2;ratioP2;P2;SDS_P1;SDS_P2;PMS_P1;PMS_P2;Temp;Humidity;BMP_temperature;BMP_pressure;BME280_temperature;BME280_humidity;BME280_pressure;Samples;Min_cycle;Max_cycle;Signal;HPM_P1;HPM_P2
2022/07/03 00:02:26;;;;;;;;;;;;;;;;;;5056214;28;1985;-72
2022/07/03 00:04:52;;;;;;;;;;;;;;;;;;5057410;28;1114;-72
2022/07/03 00:07:18;;;;;;;;;;;;;;;;;;5053894;28;1294;-72
2022/07/03 00:09:45;;;;;;;;;;;;;;;;;;5054145;28;959;-72
2022/07/03 00:12:12;;;;;;;;;;;;;;;;;;5053855;28;1095;-72
2022/07/03 00:14:38;;;;;;;;;;;;;;;;;;5053924;28;1063;-72
2022/07/03 00:17:04;;;;;;;;;;;;;;;;;;5051445;28;1319;-71
2022/07/03 00:19:30;;;;;;;;;;;;;;;;;;5053590;28;980;-72
2022/07/03 00:21:57;;;;;;;;;;;;;;;;;;5052555;28;1914;-72
2022/07/03 00:24:24;;;;;;;;;;;;;;;;;;5053879;28;933;-72
2022/07/03 00:26:52;;;;;;;;;;;;;;;;;;5051716;28;1390;-72
2022/07/03 00:29:20;;;;;;;;;;;;;;;;;;5052312;28;1191;-72
2022/07/03 00:31:47;;;;;;;;;;;;;;;;;;5051990;28;1628;-72
2022/07/03 00:34:13;;;;;;;;;;;;;;;;;;5053314;28;921;-72
2022/07/03 00:36:39;;;;;;;;;;;;;;;;;;5052806;28;1333;-72
2022/07/03 00:39:05;;;;;;;;;;;;;;;;;;5052018;28;1253;-72
2022/07/03 00:41:32;;;;;;;;;;;;;;;;;;5053291;28;1902;-72
2022/07/03 00:43:59;;;;;;;;;;;;;;;;;;5052559;28;1436;-72
2022/07/03 00:46:26;;;;;;;;;;;;;;;;;;5052501;28;1447;-72
2022/07/03 00:48:53;;;;;;;;;;;;;;;;;;5053262;28;814;-72
2022/07/03 00:51:21;;;;;;;;;;;;;;;;;;5052179;28;1352;-72
2022/07/03 00:53:47;;;;;;;;;;;;;;;;;;5053217;28;1110;-72
2022/07/03 00:56:14;;;;;;;;;;;;;;;;;;5034596;28;1312;-72
2022/07/03 00:58:40;;;;;;;;;;;;;;;;;;5033950;28;913;-72
2022/07/03 01:01:07;;;;;;;;;;;;;;;;;;5034167;28;1911;-72
2022/07/03 01:03:34;;;;;;;;;;;;;;;;;;5032134;28;1152;-72
2022/07/03 01:06:02;;;;;;;;;;;;;;;;;;5033123;28;1297;-72
2022/07/03 01:08:30;;;;;;;;;;;;;;;;;;5032261;28;1077;-72
2022/07/03 01:10:59;;;;;;;;;;;;;;;;;;5033050;28;1106;-72
2022/07/03 01:13:26;;;;;;;;;;;;;;;;;;5033068;28;1119;-72
2022/07/03 01:15:53;;;;;;;;;;;;;;;;;;5032620;28;1402;-71
2022/07/03 01:18:27;;;;;;;;;;;;;;;;;;5031863;28;917;-72
2022/07/03 01:20:54;;;;;;;;;;;;;;;;;;5032825;28;1977;-73
2022/07/03 01:23:21;;;;;;;;;;;;;;;;;;5037724;28;1471;-72
2022/07/03 01:25:49;;;;;;;;;;;;;;;;;;5051423;28;1462;-72
2022/07/03 01:28:16;;;;;;;;;;;;;;;;;;5051707;28;1294;-72
2022/07/03 01:30:43;;;;;;;;;;;;;;;;;;5052413;28;1099;-72
2022/07/03 01:33:10;;;;;;;;;;;;;;;;;;5051228;28;886;-72
2022/07/03 01:35:37;;;;;;;;;;;;;;;;;;5052364;28;1063;-72
2022/07/03 01:40:48;;;;;;;;;;;;;;;;;;4981096;28;1902;-79
2022/07/03 01:43:15;;;;;;;;;;;;;;;;;;4989907;28;1227;-78
2022/07/03 01:45:42;;;;;;;;;;;;;;;;;;4975865;28;1180;-79
2022/07/03 01:48:09;;;;;;;;;;;;;;;;;;4956921;28;1256;-78
2022/07/03 01:50:35;;;;;;;;;;;;;;;;;;4955141;28;1320;-79
2022/07/03 01:53:02;;;;;;;;;;;;;;;;;;4947740;28;1663;-78
2022/07/03 01:55:29;;;;;;;;;;;;;;;;;;4948262;29;1093;-78
2022/07/03 01:57:56;;;;;;;;;;;;;;;;;;4941866;29;1130;-79
2022/07/03 02:00:23;;;;;;;;;;;;;;;;;;4968552;28;1413;-78
2022/07/03 02:02:51;;;;;;;;;;;;;;;;;;4954026;29;1911;-78
2022/07/03 02:05:20;;;;;;;;;;;;;;;;;;4954065;29;1147;-79
2022/07/03 02:07:48;;;;;;;;;;;;;;;;;;4953306;29;1099;-78
2022/07/03 02:10:16;;;;;;;;;;;;;;;;;;4953561;28;1346;-78
2022/07/03 02:12:49;;;;;;;;;;;;;;;;;;4953649;29;898;-77
2022/07/03 02:15:17;;;;;;;;;;;;;;;;;;4953522;29;1072;-78
2022/07/03 02:17:44;;;;;;;;;;;;;;;;;;4967342;28;1124;-78
2022/07/03 02:20:10;;;;;;;;;;;;;;;;;;4953569;28;1334;-78
2022/07/03 02:22:38;;;;;;;;;;;;;;;;;;4953754;29;1915;-78
2022/07/03 02:25:06;;;;;;;;;;;;;;;;;;4953458;29;1069;-78
2022/07/03 02:27:33;;;;;;;;;;;;;;;;;;4967917;28;1272;-78
2022/07/03 02:30:00;;;;;;;;;;;;;;;;;;4968349;28;1359;-78
2022/07/03 02:32:30;;;;;;;;;;;;;;;;;;4953727;29;690;-78
2022/07/03 02:34:57;;;;;;;;;;;;;;;;;;4953275;29;811;-78
2022/07/03 02:37:23;;;;;;;;;;;;;;;;;;4967567;28;1218;-78
2022/07/03 02:39:51;;;;;;;;;;;;;;;;;;4953167;28;1283;-78
2022/07/03 02:42:24;;;;;;;;;;;;;;;;;;4953307;29;1982;-78
2022/07/03 02:44:51;;;;;;;;;;;;;;;;;;4953189;29;958;-78
2022/07/03 02:47:22;;;;;;;;;;;;;;;;;;4952469;29;1103;-79
2022/07/03 02:49:54;;;;;;;;;;;;;;;;;;4953372;28;1384;-78
2022/07/03 02:52:25;;;;;;;;;;;;;;;;;;4953553;29;930;-78
2022/07/03 02:54:52;;;;;;;;;;;;;;;;;;4953100;29;1120;-78
2022/07/03 02:57:19;;;;;;;;;;;;;;;;;;4952569;29;1040;-78
2022/07/03 02:59:53;;;;;;;;;;;;;;;;;;4952989;28;1348;-78
2022/07/03 03:02:20;;;;;;;;;;;;;;;;;;4952944;28;1965;-79
2022/07/03 03:04:49;;;;;;;;;;;;;;;;;;4956969;29;974;-78
2022/07/03 03:07:17;;;;;;;;;;;;;;;;;;4956421;29;961;-78
2022/07/03 03:09:45;;;;;;;;;;;;;;;;;;4956686;28;1275;-78
2022/07/03 03:12:11;;;;;;;;;;;;;;;;;;4956731;29;1060;-78
2022/07/03 03:14:39;;;;;;;;;;;;;;;;;;4971796;28;1137;-77
2022/07/03 03:17:06;;;;;;;;;;;;;;;;;;4956177;29;1060;-77
2022/07/03 03:19:32;;;;;;;;;;;;;;;;;;4956734;28;1272;-78
2022/07/03 03:21:59;;;;;;;;;;;;;;;;;;4956226;29;1962;-78
2022/07/03 03:24:27;;;;;;;;;;;;;;;;;;4956721;29;1076;-78
2022/07/03 03:26:53;;;;;;;;;;;;;;;;;;4955937;29;1120;-78
2022/07/03 03:29:20;;;;;;;;;;;;;;;;;;4971443;28;1395;-78
2022/07/03 03:31:46;;;;;;;;;;;;;;;;;;4962237;28;1459;-78
2022/07/03 03:34:12;;;;;;;;;;;;;;;;;;4975781;28;1040;-78
2022/07/03 03:36:38;;;;;;;;;;;;;;;;;;4990118;28;1178;-78
2022/07/03 03:39:04;;;;;;;;;;;;;;;;;;4975675;28;1362;-78
2022/07/03 03:41:32;;;;;;;;;;;;;;;;;;4975406;28;1911;-78
2022/07/03 03:43:58;;;;;;;;;;;;;;;;;;4975375;28;804;-77
2022/07/03 03:46:24;;;;;;;;;;;;;;;;;;4974829;28;1085;-78
2022/07/03 03:48:50;;;;;;;;;;;;;;;;;;4958145;28;1384;-78
2022/07/03 03:51:17;;;;;;;;;;;;;;;;;;4956004;29;1069;-77
2022/07/03 03:53:43;;;;;;;;;;;;;;;;;;4970949;28;1225;-79
2022/07/03 03:56:10;;;;;;;;;;;;;;;;;;4970350;28;1234;-78
2022/07/03 03:58:38;;;;;;;;;;;;;;;;;;4971102;28;1299;-77
2022/07/03 04:01:05;;;;;;;;;;;;;;;;;;4955998;29;1033;-77
2022/07/03 04:03:31;;;;;;;;;;;;;;;;;;4955578;29;1982;-78
2022/07/03 04:05:58;;;;;;;;;;;;;;;;;;4970576;28;1181;-78
2022/07/03 04:08:24;;;;;;;;;;;;;;;;;;4955257;28;1276;-78
2022/07/03 04:10:50;;;;;;;;;;;;;;;;;;4970766;28;1229;-78
2022/07/03 04:13:17;;;;;;;;;;;;;;;;;;4955612;29;1234;-78
2022/07/03 04:15:44;;;;;;;;;;;;;;;;;;4954907;28;839;-78
2022/07/03 04:18:10;;;;;;;;;;;;;;;;;;4955256;29;990;-77
2022/07/03 04:20:36;;;;;;;;;;;;;;;;;;4970612;28;1259;-78
2022/07/03 04:23:03;;;;;;;;;;;;;;;;;;4955267;29;1915;-77
2022/07/03 04:25:29;;;;;;;;;;;;;;;;;;4970852;28;1256;-78
2022/07/03 04:27:55;;;;;;;;;;;;;;;;;;4954802;29;1112;-78
2022/07/03 04:30:21;;;;;;;;;;;;;;;;;;4955402;28;1294;-78
2022/07/03 04:32:49;;;;;;;;;;;;;;;;;;4969983;28;1231;-78
2022/07/03 04:35:15;;;;;;;;;;;;;;;;;;4955422;29;1064;-78
2022/07/03 04:37:42;;;;;;;;;;;;;;;;;;4954795;29;1033;-77
2022/07/03 04:40:08;;;;;;;;;;;;;;;;;;4955143;28;1314;-78
2022/07/03 04:42:35;;;;;;;;;;;;;;;;;;4955183;29;1961;-78
2022/07/03 04:45:01;;;;;;;;;;;;;;;;;;4969955;28;1141;-78
2022/07/03 04:47:27;;;;;;;;;;;;;;;;;;4954233;29;1114;-78
2022/07/03 04:49:54;;;;;;;;;;;;;;;;;;4954910;28;1452;-78
2022/07/03 04:52:20;;;;;;;;;;;;;;;;;;4969919;28;1392;-78
2022/07/03 04:54:47;;;;;;;;;;;;;;;;;;4954373;29;897;-78
2022/07/03 04:57:13;;;;;;;;;;;;;;;;;;4969006;28;1166;-78
2022/07/03 04:59:39;;;;;;;;;;;;;;;;;;4954738;28;1274;-77
2022/07/03 05:02:05;;;;;;;;;;;;;;;;;;4954668;29;1918;-77
2022/07/03 05:04:31;;;;;;;;;;;;;;;;;;4955102;29;799;-77
2022/07/03 05:06:59;;;;;;;;;;;;;;;;;;4954137;29;985;-78
2022/07/03 05:09:25;;;;;;;;;;;;;;;;;;4954702;28;1314;-78
2022/07/03 05:11:51;;;;;;;;;;;;;;;;;;4954638;29;922;-78
2022/07/03 05:14:18;;;;;;;;;;;;;;;;;;4954668;29;1081;-77
2022/07/03 05:16:44;;;;;;;;;;;;;;;;;;4953976;29;933;-77
2022/07/03 05:19:10;;;;;;;;;;;;;;;;;;4969233;28;1428;-77
2022/07/03 05:21:36;;;;;;;;;;;;;;;;;;4954904;29;1120;-78
2022/07/03 05:24:04;;;;;;;;;;;;;;;;;;4954446;29;1970;-77
2022/07/03 05:26:30;;;;;;;;;;;;;;;;;;4955366;28;1442;-78
2022/07/03 05:28:56;;;;;;;;;;;;;;;;;;4973422;28;1427;-78
2022/07/03 05:31:22;;;;;;;;;;;;;;;;;;4974007;28;806;-78
2022/07/03 05:33:49;;;;;;;;;;;;;;;;;;4973621;28;1009;-77
2022/07/03 05:36:15;;;;;;;;;;;;;;;;;;4972599;28;1139;-77
2022/07/03 05:41:26;;;;;;;;;;;;;;;;;;4973453;28;989;-78
2022/07/03 05:43:52;;;;;;;;;;;;;;;;;;4973406;28;1907;-77
2022/07/03 05:46:18;;;;;;;;;;;;;;;;;;4972832;28;1115;-77
2022/07/03 05:48:45;;;;;;;;;;;;;;;;;;4955859;28;1844;-78
2022/07/03 05:51:11;;;;;;;;;;;;;;;;;;4952696;29;1192;-77
2022/07/03 05:53:37;;;;;;;;;;;;;;;;;;4952839;29;1234;-77
2022/07/03 05:56:03;;;;;;;;;;;;;;;;;;4968736;28;849;-78
2022/07/03 05:58:31;;;;;;;;;;;;;;;;;;4953186;28;1279;-78
2022/07/03 06:00:57;;;;;;;;;;;;;;;;;;4953875;29;937;-78
2022/07/03 06:03:23;;;;;;;;;;;;;;;;;;4968424;28;1933;-77
2022/07/03 06:05:49;;;;;;;;;;;;;;;;;;4953619;29;1064;-78
2022/07/03 06:08:15;;;;;;;;;;;;;;;;;;4951666;28;1306;-78
2022/07/03 06:10:42;;;;;;;;;;;;;;;;;;4953662;29;1072;-78
2022/07/03 06:13:08;;;;;;;;;;;;;;;;;;4953773;29;775;-78
2022/07/03 06:15:35;;;;;;;;;;;;;;;;;;4953735;29;1124;-78
2022/07/03 06:18:01;;;;;;;;;;;;;;;;;;4952467;29;1119;-77
2022/07/03 06:20:28;;;;;;;;;;;;;;;;;;4953723;28;1410;-78
2022/07/03 06:22:54;;;;;;;;;;;;;;;;;;4953379;29;1970;-78
2022/07/03 06:25:20;;;;;;;;;;;;;;;;;;4953407;29;1080;-78
2022/07/03 06:27:46;;;;;;;;;;;;;;;;;;4952535;29;1005;-78
2022/07/03 06:30:12;;;;;;;;;;;;;;;;;;4953811;28;1375;-78
2022/07/03 06:32:40;;;;;;;;;;;;;;;;;;4954073;29;895;-78
2022/07/03 06:35:07;;;;;;;;;;;;;;;;;;4968656;28;1200;-78
2022/07/03 06:37:33;;;;;;;;;;;;;;;;;;4966987;28;1180;-78
2022/07/03 06:39:59;;;;;;;;;;;;;;;;;;4968381;28;1403;-78
2022/07/03 06:42:25;;;;;;;;;;;;;;;;;;4953874;29;1965;-78
2022/07/03 06:44:51;;;;;;;;;;;;;;;;;;4953741;29;1064;-79
2022/07/03 06:47:17;;;;;;;;;;;;;;;;;;4952752;29;1405;-79
2022/07/03 06:49:45;;;;;;;;;;;;;;;;;;4953655;28;1375;-78
2022/07/03 06:52:12;;;;;;;;;;;;;;;;;;4954248;29;1127;-78
2022/07/03 06:54:41;;;;;;;;;;;;;;;;;;4953815;29;925;-78
2022/07/03 06:57:07;;;;;;;;;;;;;;;;;;4952822;29;919;-77
2022/07/03 06:59:33;;;;;;;;;;;;;;;;;;4953856;28;1381;-77
2022/07/03 07:01:59;;;;;;;;;;;;;;;;;;4953158;29;1052;-78
2022/07/03 07:04:25;;;;;;;;;;;;;;;;;;4953753;29;2042;-78
2022/07/03 07:06:53;;;;;;;;;;;;;;;;;;4952699;29;1155;-78
2022/07/03 07:09:19;;;;;;;;;;;;;;;;;;4953384;28;1676;-78
2022/07/03 07:11:45;;;;;;;;;;;;;;;;;;4969228;28;1374;-79
2022/07/03 07:14:11;;;;;;;;;;;;;;;;;;4953220;29;1001;-79
2022/07/03 07:16:38;;;;;;;;;;;;;;;;;;4952583;29;1061;-78
2022/07/03 07:19:04;;;;;;;;;;;;;;;;;;4952977;28;1469;-79
2022/07/03 07:21:30;;;;;;;;;;;;;;;;;;4967995;28;1153;-78
2022/07/03 07:23:57;;;;;;;;;;;;;;;;;;4952628;29;1965;-79
2022/07/03 07:26:24;;;;;;;;;;;;;;;;;;4952533;29;1136;-77
2022/07/03 07:28:50;;;;;;;;;;;;;;;;;;4955461;28;1505;-78
2022/07/03 07:31:16;;;;;;;;;;;;;;;;;;4953217;29;917;-79
2022/07/03 07:33:42;;;;;;;;;;;;;;;;;;4952633;29;937;-78
2022/07/03 07:36:08;;;;;;;;;;;;;;;;;;4952438;29;1069;-79
2022/07/03 07:38:35;;;;;;;;;;;;;;;;;;4952926;28;1407;-79
2022/07/03 07:41:02;;;;;;;;;;;;;;;;;;4952792;29;1064;-77
2022/07/03 07:43:28;;;;;;;;;;;;;;;;;;4951183;28;1972;-79
2022/07/03 07:45:54;;;;;;;;;;;;;;;;;;4953004;29;839;-78
2022/07/03 07:48:21;;;;;;;;;;;;;;;;;;4947689;29;1369;-78
2022/07/03 07:50:48;;;;;;;;;;;;;;;;;;4936103;29;1112;-78
2022/07/03 07:53:14;;;;;;;;;;;;;;;;;;4936022;28;1488;-79
2022/07/03 07:55:40;;;;;;;;;;;;;;;;;;4949290;28;1619;-78
2022/07/03 07:58:08;;;;;;;;;;;;;;;;;;4936865;29;1064;-78
2022/07/03 08:00:34;;;;;;;;;;;;;;;;;;4937125;29;1384;-79
2022/07/03 08:05:44;;;;;;;;;;;;;;;;;;4937714;29;974;-78
2022/07/03 08:08:11;;;;;;;;;;;;;;;;;;4936899;29;1046;-79
2022/07/03 08:10:38;;;;;;;;;;;;;;;;;;5045808;23;4279;-74
2022/07/03 08:13:04;;;;;;;;;;;;;;;;;;5021263;28;1143;-75
2022/07/03 08:15:32;;;;;;;;;;;;;;;;;;5014137;28;1179;-75
2022/07/03 08:17:58;;;;;;;;;;;;;;;;;;5013096;28;787;-75
2022/07/03 08:20:24;;;;;;;;;;;;;;;;;;5013909;28;1389;-75
2022/07/03 08:22:50;;;;;;;;;;;;;;;;;;5013893;28;1119;-74
2022/07/03 08:25:16;;;;;;;;;;;;;;;;;;5013912;28;1910;-75
2022/07/03 08:27:42;;;;;;;;;;;;;;;;;;5013170;28;1115;-75
2022/07/03 08:30:09;;;;;;;;;;;;;;;;;;5011914;28;1301;-75
2022/07/03 08:32:36;;;;;;;;;;;;;;;;;;5013932;28;1064;-75
2022/07/03 08:35:03;;;;;;;;;;;;;;;;;;5013802;28;1064;-75
2022/07/03 08:37:30;;;;;;;;;;;;;;;;;;5013073;28;1126;-75
2022/07/03 08:39:56;;;;;;;;;;;;;;;;;;5011874;28;1322;-75
2022/07/03 08:42:24;;;;;;;;;;;;;;;;;;5012447;28;1315;-74
2022/07/03 08:44:50;;;;;;;;;;;;;;;;;;5013613;28;1918;-73
2022/07/03 08:47:16;;;;;;;;;;;;;;;;;;5012675;28;842;-75
2022/07/03 08:49:44;;;;;;;;;;;;;;;;;;5013264;28;1296;-76
2022/07/03 08:52:11;;;;;;;;;;;;;;;;;;5013373;28;1047;-75
2022/07/03 08:54:37;;;;;;;;;;;;;;;;;;5013430;28;1036;-75
2022/07/03 08:57:03;;;;;;;;;;;;;;;;;;5012346;28;1048;-75
2022/07/03 08:59:30;;;;;;;;;;;;;;;;;;5012852;28;1294;-75
2022/07/03 09:01:57;;;;;;;;;;;;;;;;;;5012910;28;723;-75
2022/07/03 09:04:23;;;;;;;;;;;;;;;;;;5012913;28;1931;-75
2022/07/03 09:06:50;;;;;;;;;;;;;;;;;;5012400;28;1040;-75
2022/07/03 09:09:17;;;;;;;;;;;;;;;;;;5012694;28;1362;-76
2022/07/03 09:11:43;;;;;;;;;;;;;;;;;;5013113;28;996;-75
2022/07/03 09:14:09;;;;;;;;;;;;;;;;;;5012767;28;1055;-75
2022/07/03 09:16:35;;;;;;;;;;;;;;;;;;5012326;28;889;-75
2022/07/03 09:19:03;;;;;;;;;;;;;;;;;;5010794;28;1391;-75
2022/07/03 09:21:35;;;;;;;;;;;;;;;;;;5012658;28;1464;-75
2022/07/03 09:24:05;;;;;;;;;;;;;;;;;;5011033;28;1981;-75
2022/07/03 09:26:31;;;;;;;;;;;;;;;;;;5011944;28;1115;-75
2022/07/03 09:28:58;;;;;;;;;;;;;;;;;;5012122;28;1454;-75
2022/07/03 09:31:25;;;;;;;;;;;;;;;;;;5012674;28;1079;-75
2022/07/03 09:33:52;;;;;;;;;;;;;;;;;;5012526;28;1061;-74
2022/07/03 09:36:18;;;;;;;;;;;;;;;;;;5027125;28;1250;-75
2022/07/03 09:38:44;;;;;;;;;;;;;;;;;;5012189;28;1403;-76
2022/07/03 09:41:12;;;;;;;;;;;;;;;;;;5012336;28;882;-75
2022/07/03 09:43:41;;;;;;;;;;;;;;;;;;5012279;28;1922;-76
2022/07/03 09:46:08;;;;;;;;;;;;;;;;;;5026767;28;1148;-74
2022/07/03 09:48:34;;;;;;;;;;;;;;;;;;5027018;28;1138;-76
2022/07/03 09:51:14;;;;;;;;;;;;;;;;;;5012040;28;1285;-76
2022/07/03 09:53:44;;;;;;;;;;;;;;;;;;5012109;28;782;-75
2022/07/03 09:56:11;;;;;;;;;;;;;;;;;;5026500;28;988;-74
2022/07/03 09:58:38;;;;;;;;;;;;;;;;;;5011851;28;1271;-76
2022/07/03 10:01:16;;;;;;;;;;;;;;;;;;5011883;28;1294;-75
2022/07/03 10:03:42;;;;;;;;;;;;;;;;;;5027146;28;1965;-76
2022/07/03 10:06:08;;;;;;;;;;;;;;;;;;5011153;28;1006;-73
2022/07/03 10:08:34;;;;;;;;;;;;;;;;;;5011694;28;1072;-77
2022/07/03 10:11:00;;;;;;;;;;;;;;;;;;5027135;28;1394;-76
2022/07/03 10:13:28;;;;;;;;;;;;;;;;;;5011568;28;1060;-77
2022/07/03 10:15:56;;;;;;;;;;;;;;;;;;5012576;28;886;-77
2022/07/03 10:18:23;;;;;;;;;;;;;;;;;;5011287;28;1134;-77
2022/07/03 10:20:50;;;;;;;;;;;;;;;;;;5012596;28;1302;-77
2022/07/03 10:23:16;;;;;;;;;;;;;;;;;;5011808;28;953;-76
2022/07/03 10:25:42;;;;;;;;;;;;;;;;;;5027348;28;1922;-77
2022/07/03 10:28:08;;;;;;;;;;;;;;;;;;5011178;28;1147;-77
2022/07/03 10:30:36;;;;;;;;;;;;;;;;;;5015500;28;1371;-76
2022/07/03 10:33:03;;;;;;;;;;;;;;;;;;5021217;28;1156;-77
2022/07/03 10:35:36;;;;;;;;;;;;;;;;;;5035096;28;1183;-77
2022/07/03 10:38:09;;;;;;;;;;;;;;;;;;5011132;28;1056;-77
2022/07/03 10:46:11;;;;;;;;;;;;;;;;;;5010889;28;839;-76
2022/07/03 10:48:53;;;;;;;;;;;;;;;;;;5017316;28;1659;-77
2022/07/03 10:51:19;;;;;;;;;;;;;;;;;;5005176;28;1547;-76
2022/07/03 10:53:45;;;;;;;;;;;;;;;;;;5011656;28;1221;-77
2022/07/03 10:56:12;;;;;;;;;;;;;;;;;;5010257;28;1319;-76
2022/07/03 10:58:53;;;;;;;;;;;;;;;;;;5011184;28;1391;-76
2022/07/03 11:01:27;;;;;;;;;;;;;;;;;;5000692;28;1411;-75
2022/07/03 11:03:55;;;;;;;;;;;;;;;;;;5010400;28;2380;-77
2022/07/03 11:06:21;;;;;;;;;;;;;;;;;;5011312;28;1072;-75
2022/07/03 11:09:01;;;;;;;;;;;;;;;;;;5011536;28;1305;-77
2022/07/03 11:14:21;;;;;;;;;;;;;;;;;;5011843;28;1158;-77
2022/07/03 11:16:49;;;;;;;;;;;;;;;;;;5011197;28;1106;-76
2022/07/03 11:19:15;;;;;;;;;;;;;;;;;;5011545;28;1397;-78
2022/07/03 11:21:42;;;;;;;;;;;;;;;;;;5011943;28;787;-77
2022/07/03 11:24:12;;;;;;;;;;;;;;;;;;5012675;28;1914;-77
2022/07/03 11:26:38;;;;;;;;;;;;;;;;;;5015082;28;1259;-76
2022/07/03 11:29:04;;;;;;;;;;;;;;;;;;5015324;28;1325;-78
2022/07/03 11:31:30;;;;;;;;;;;;;;;;;;5019629;28;1159;-77
2022/07/03 11:33:59;;;;;;;;;;;;;;;;;;5022113;28;1371;-76
2022/07/03 11:36:26;;;;;;;;;;;;;;;;;;5010150;28;1408;-76
2022/07/03 11:38:54;;;;;;;;;;;;;;;;;;5027405;28;1417;-78
2022/07/03 11:41:20;;;;;;;;;;;;;;;;;;5016203;28;1143;-77
2022/07/03 11:43:46;;;;;;;;;;;;;;;;;;5014204;28;1413;-78
2022/07/03 11:46:17;;;;;;;;;;;;;;;;;;5016069;28;2049;-78
2022/07/03 11:48:43;;;;;;;;;;;;;;;;;;5017161;28;1336;-78
2022/07/03 11:51:10;;;;;;;;;;;;;;;;;;5018227;28;779;-77
2022/07/03 11:53:37;;;;;;;;;;;;;;;;;;5017281;28;954;-78
2022/07/03 11:56:04;;;;;;;;;;;;;;;;;;5014921;28;1505;-77
2022/07/03 11:58:40;;;;;;;;;;;;;;;;;;5016598;28;1178;-78
2022/07/03 12:01:07;;;;;;;;;;;;;;;;;;5015897;28;1406;-77
2022/07/03 12:03:33;;;;;;;;;;;;;;;;;;5017054;28;1024;-77
2022/07/03 12:05:59;;;;;;;;;;;;;;;;;;5013767;28;1922;-77
2022/07/03 12:08:28;;;;;;;;;;;;;;;;;;5013988;28;1385;-77
2022/07/03 12:10:57;;;;;;;;;;;;;;;;;;5014805;28;1416;-77
2022/07/03 12:13:24;;;;;;;;;;;;;;;;;;5014774;28;1488;-78
2022/07/03 12:15:50;;;;;;;;;;;;;;;;;;5016922;28;1171;-76
2022/07/03 12:18:17;;;;;;;;;;;;;;;;;;5014262;28;1214;-77
2022/07/03 12:20:43;;;;;;;;;;;;;;;;;;5014874;28;1337;-77
2022/07/03 12:23:09;;;;;;;;;;;;;;;;;;5014224;28;1413;-78
2022/07/03 12:25:40;;;;;;;;;;;;;;;;;;5015677;28;1991;-77
2022/07/03 12:28:06;;;;;;;;;;;;;;;;;;5013937;28;1419;-76
2022/07/03 12:30:32;;;;;;;;;;;;;;;;;;5016916;28;1483;-77
2022/07/03 12:32:59;;;;;;;;;;;;;;;;;;5017436;28;1194;-77
2022/07/03 12:35:26;;;;;;;;;;;;;;;;;;5016150;28;854;-77
2022/07/03 12:37:52;;;;;;;;;;;;;;;;;;5016107;28;1134;-78
2022/07/03 12:40:18;;;;;;;;;;;;;;;;;;5015123;28;1476;-78
2022/07/03 12:42:46;;;;;;;;;;;;;;;;;;5016246;28;1194;-78
2022/07/03 12:45:13;;;;;;;;;;;;;;;;;;5017613;28;1969;-77
2022/07/03 12:47:40;;;;;;;;;;;;;;;;;;5015046;28;1373;-77
2022/07/03 12:50:06;;;;;;;;;;;;;;;;;;5017853;28;1319;-77
2022/07/03 12:52:33;;;;;;;;;;;;;;;;;;5017140;28;1338;-78
2022/07/03 12:55:00;;;;;;;;;;;;;;;;;;5016281;28;1408;-78
2022/07/03 13:00:16;;;;;;;;;;;;;;;;;;5021045;28;1279;-78
2022/07/03 13:02:42;;;;;;;;;;;;;;;;;;5021997;28;775;-78
2022/07/03 13:05:14;;;;;;;;;;;;;;;;;;5018410;28;1964;-79
2022/07/03 13:07:40;;;;;;;;;;;;;;;;;;5002921;28;1434;-78
2022/07/03 13:10:07;;;;;;;;;;;;;;;;;;5008071;28;1307;-78
2022/07/03 13:12:33;;;;;;;;;;;;;;;;;;5014965;28;1375;-78
2022/07/03 13:15:00;;;;;;;;;;;;;;;;;;5011877;28;1432;-76
2022/07/03 13:17:41;;;;;;;;;;;;;;;;;;5016553;28;1368;-76
2022/07/03 13:20:09;;;;;;;;;;;;;;;;;;5012282;28;1435;-77
2022/07/03 13:22:35;;;;;;;;;;;;;;;;;;5012809;28;1414;-77
2022/07/03 13:25:01;;;;;;;;;;;;;;;;;;5027724;28;1972;-77
2022/07/03 13:27:28;;;;;;;;;;;;;;;;;;5011563;28;1218;-77
2022/07/03 13:29:54;;;;;;;;;;;;;;;;;;5012709;28;1326;-77
2022/07/03 13:32:20;;;;;;;;;;;;;;;;;;5011714;28;1242;-75
2022/07/03 13:34:46;;;;;;;;;;;;;;;;;;5013251;28;1377;-77
2022/07/03 13:37:14;;;;;;;;;;;;;;;;;;5015485;28;1068;-78
2022/07/03 13:39:40;;;;;;;;;;;;;;;;;;5015057;28;1396;-77
2022/07/03 13:42:10;;;;;;;;;;;;;;;;;;5015991;28;1088;-77
2022/07/03 13:44:36;;;;;;;;;;;;;;;;;;5014738;28;1972;-77
2022/07/03 13:47:02;;;;;;;;;;;;;;;;;;5009563;28;1411;-77
2022/07/03 13:49:29;;;;;;;;;;;;;;;;;;5018096;28;1554;-77
2022/07/03 13:51:55;;;;;;;;;;;;;;;;;;5024425;28;1639;-76
2022/07/03 13:54:22;;;;;;;;;;;;;;;;;;5018724;28;1207;-77
2022/07/03 13:56:49;;;;;;;;;;;;;;;;;;5021895;28;1795;-75
2022/07/03 13:59:15;;;;;;;;;;;;;;;;;;5025872;28;1455;-77
2022/07/03 14:01:41;;;;;;;;;;;;;;;;;;5028154;28;1280;-76
2022/07/03 14:04:07;;;;;;;;;;;;;;;;;;5027197;28;1111;-76
2022/07/03 14:06:34;;;;;;;;;;;;;;;;;;5017162;28;1928;-78
2022/07/03 14:09:00;;;;;;;;;;;;;;;;;;5018505;28;1457;-78
2022/07/03 14:11:28;;;;;;;;;;;;;;;;;;5018192;28;1091;-77
2022/07/03 14:13:54;;;;;;;;;;;;;;;;;;5016103;28;1227;-78
2022/07/03 14:16:20;;;;;;;;;;;;;;;;;;5016917;28;1128;-79
2022/07/03 14:18:47;;;;;;;;;;;;;;;;;;5010936;28;1401;-77
2022/07/03 14:21:13;;;;;;;;;;;;;;;;;;5015204;28;1231;-78
2022/07/03 14:23:39;;;;;;;;;;;;;;;;;;5011182;28;1326;-77
2022/07/03 14:26:05;;;;;;;;;;;;;;;;;;5013257;28;1918;-76
2022/07/03 14:34:01;;;;;;;;;;;;;;;;;;5014882;28;1538;-78
2022/07/03 14:36:27;;;;;;;;;;;;;;;;;;5013553;28;1267;-78
2022/07/03 14:38:53;;;;;;;;;;;;;;;;;;5014740;28;1721;-78
2022/07/03 14:41:20;;;;;;;;;;;;;;;;;;5013742;28;1127;-78
2022/07/03 14:43:47;;;;;;;;;;;;;;;;;;5024938;23;2104;-73
2022/07/03 14:46:13;;;;;;;;;;;;;;;;;;5009629;28;1922;-74
2022/07/03 14:48:40;;;;;;;;;;;;;;;;;;5011445;28;1470;-74
2022/07/03 14:51:06;;;;;;;;;;;;;;;;;;4998657;28;1540;-74
2022/07/03 14:53:32;;;;;;;;;;;;;;;;;;4991608;28;1409;-74
2022/07/03 14:55:59;;;;;;;;;;;;;;;;;;4972425;28;1049;-74
2022/07/03 14:58:27;;;;;;;;;;;;;;;;;;4972012;28;1095;-74
2022/07/03 15:00:55;;;;;;;;;;;;;;;;;;4984728;28;1424;-74
2022/07/03 15:03:26;;;;;;;;;;;;;;;;;;4984920;28;1553;-74
2022/07/03 15:05:52;;;;;;;;;;;;;;;;;;4992171;28;1918;-75
2022/07/03 15:08:24;;;;;;;;;;;;;;;;;;4988348;28;1552;-74
2022/07/03 15:10:50;;;;;;;;;;;;;;;;;;4986422;28;1386;-74
2022/07/03 15:13:16;;;;;;;;;;;;;;;;;;4984233;28;1366;-75
2022/07/03 15:15:42;;;;;;;;;;;;;;;;;;4982315;28;1518;-75
2022/07/03 15:18:10;;;;;;;;;;;;;;;;;;4995024;28;787;-75
2022/07/03 15:20:37;;;;;;;;;;;;;;;;;;4994695;28;1505;-74
2022/07/03 15:23:04;;;;;;;;;;;;;;;;;;4984353;28;1499;-74
2022/07/03 15:25:31;;;;;;;;;;;;;;;;;;4984206;28;1914;-75
2022/07/03 15:27:57;;;;;;;;;;;;;;;;;;4975491;28;874;-75
2022/07/03 15:30:23;;;;;;;;;;;;;;;;;;4975765;28;1021;-75
2022/07/03 15:32:50;;;;;;;;;;;;;;;;;;4979496;28;1422;-75
2022/07/03 15:35:18;;;;;;;;;;;;;;;;;;4987137;28;1511;-75
2022/07/03 15:38:02;;;;;;;;;;;;;;;;;;4989683;28;1494;-75
2022/07/03 15:40:29;;;;;;;;;;;;;;;;;;4986965;28;1162;-75
2022/07/03 15:42:57;;;;;;;;;;;;;;;;;;4993871;28;1381;-75
2022/07/03 15:45:26;;;;;;;;;;;;;;;;;;4988884;28;1907;-75
2022/07/03 15:47:55;;;;;;;;;;;;;;;;;;4991116;28;1387;-74
2022/07/03 15:50:26;;;;;;;;;;;;;;;;;;4985184;28;1401;-75
2022/07/03 15:52:53;;;;;;;;;;;;;;;;;;4983793;28;1480;-74
2022/07/03 15:55:20;;;;;;;;;;;;;;;;;;4975385;28;779;-74
2022/07/03 15:57:48;;;;;;;;;;;;;;;;;;4979772;28;1398;-74
2022/07/03 16:00:16;;;;;;;;;;;;;;;;;;4983975;28;1230;-75
2022/07/03 16:02:48;;;;;;;;;;;;;;;;;;4975810;28;1400;-74
2022/07/03 16:05:18;;;;;;;;;;;;;;;;;;4982734;28;1418;-74
2022/07/03 16:07:45;;;;;;;;;;;;;;;;;;4985848;28;1158;-74
2022/07/03 16:10:11;;;;;;;;;;;;;;;;;;4993937;28;1135;-74
2022/07/03 16:12:38;;;;;;;;;;;;;;;;;;4978967;28;1328;-73
2022/07/03 16:15:05;;;;;;;;;;;;;;;;;;4940769;28;1376;-74
2022/07/03 16:17:32;;;;;;;;;;;;;;;;;;4912532;28;894;-73
2022/07/03 16:19:59;;;;;;;;;;;;;;;;;;4926801;28;957;-74
2022/07/03 16:22:25;;;;;;;;;;;;;;;;;;4973468;28;1729;-74
2022/07/03 16:24:53;;;;;;;;;;;;;;;;;;4985531;28;1186;-76
2022/07/03 16:27:20;;;;;;;;;;;;;;;;;;4984990;28;1977;-75
2022/07/03 16:29:47;;;;;;;;;;;;;;;;;;4983007;28;1834;-75
2022/07/03 16:32:13;;;;;;;;;;;;;;;;;;4971255;28;1511;-75
2022/07/03 16:34:44;;;;;;;;;;;;;;;;;;4970426;28;1097;-75
2022/07/03 16:37:10;;;;;;;;;;;;;;;;;;4970798;28;1361;-74
2022/07/03 16:39:37;;;;;;;;;;;;;;;;;;4983248;28;1099;-75
2022/07/03 16:42:05;;;;;;;;;;;;;;;;;;4987612;28;1412;-75
2022/07/03 16:44:32;;;;;;;;;;;;;;;;;;4984282;28;1443;-74
2022/07/03 16:46:59;;;;;;;;;;;;;;;;;;4977579;28;1914;-75
2022/07/03 16:49:30;;;;;;;;;;;;;;;;;;4973471;28;1397;-75
2022/07/03 16:51:57;;;;;;;;;;;;;;;;;;4981574;28;1425;-75
2022/07/03 16:54:23;;;;;;;;;;;;;;;;;;4981968;28;1426;-75
2022/07/03 16:56:50;;;;;;;;;;;;;;;;;;4974047;28;1111;-76
2022/07/03 16:59:17;;;;;;;;;;;;;;;;;;4971173;28;934;-74
2022/07/03 17:01:44;;;;;;;;;;;;;;;;;;4979697;28;1450;-74
2022/07/03 17:04:10;;;;;;;;;;;;;;;;;;4989789;28;1409;-74
2022/07/03 17:06:36;;;;;;;;;;;;;;;;;;4988980;28;1910;-74
2022/07/03 17:09:03;;;;;;;;;;;;;;;;;;4982096;28;1181;-74
2022/07/03 17:11:29;;;;;;;;;;;;;;;;;;4989146;28;783;-74
2022/07/03 17:13:55;;;;;;;;;;;;;;;;;;4990513;28;1338;-74
2022/07/03 17:16:23;;;;;;;;;;;;;;;;;;4982771;28;1493;-74
2022/07/03 17:18:51;;;;;;;;;;;;;;;;;;4982356;28;1111;-74
2022/07/03 17:21:18;;;;;;;;;;;;;;;;;;4990032;28;929;-74
2022/07/03 17:23:45;;;;;;;;;;;;;;;;;;4989439;28;1517;-74
2022/07/03 17:26:15;;;;;;;;;;;;;;;;;;4983379;28;1906;-73
2022/07/03 17:28:45;;;;;;;;;;;;;;;;;;4990385;28;1077;-74
2022/07/03 17:31:13;;;;;;;;;;;;;;;;;;4990014;28;1060;-74